Aérodrome :
LOGIN :

S'inscrire | Disclaimer

   EN    FR    IT 

 










Légende :    VFR   VFR Marginal   IFR   IFR Intensif   IFR Très Intensif
Visi : 
Plafond : 
>= 8 km
>= 3000ft
5 à 8 km
1000 à 3000 ft
1500m à 5 km
500 à 1000 ft
800 à 1500m
200 à 500 ft
< 800m
< 200 ft
Symboles :   Orages  Brouillard  Fortes neiges  Fortes précipitations  Vent > 20 kt
SIGMETs :   Divers  Orages  Givrage  Turbulence  Onde Orograph.  Cendres Volcan.






- Altitude de l'aérodrome : 26 ft
- Code IATA : SYY


EGPO - Stornoway

DERNIER METAR :
  • 050050Z AUTO 18011KT 9999 FEW011/// 08/05 Q1006

METARs EXPIRÉS :
  • 050020Z AUTO 16016KT 9999 NCD 08/05 Q1006
  • 042350Z AUTO 15016KT 9999 NCD 08/05 Q1006
  • 042320Z AUTO 16017KT 9999 NCD 08/05 Q1007
  • 042250Z AUTO 17021KT 9999 NCD 08/05 Q1007
  • 042220Z AUTO 17020KT 9999 NCD 08/05 Q1007

TAF COR TAF EGPO
Valide du 05 à 00h jusqu'au 05 à 09h UTC


050013Z 0500/0509 16015KT 9999 FEW045
TEMPO 0500/0509 17020G30KT
PROB40
TEMPO 0500/0509 18028G42KT
ATIS : +44 1851 707 444



MET'MAP, la Météo Aéronautique d'un coup d'oeil ! - Copyright ORBIFLY Décembre 2007 - Disclaimer

ORBIFLY MET'MAP TEAM :

Programmation & Développement : Alexandra Zaïnal
Sur une idée originale de : Baudouin d'Aumeries
Assistance à la programmation : Marc-Olivier Méhu
Soutien technique & logistique : Manuel Goepfert

Contact : metmap@orbifly.com




SOURCES & CREDITS :

   NOAA